Athens, Missouri
Current Conditions -  °F | °C
As of 5:55 PM on Saturday 25 Oct 2014 (Local Time) from KEOK Reporting Station
Clear Clear  
Wind Chill: 72°   Ceiling: Unl
Heat Index: 72°   Visibility: 10mi
Dew Point: 43°   Wind: 0mph
Humidity: 35%   Direction: NA
Pressure: 30.02"   Gusts: NA
Location:  40.4976°N, 91.6726°W
Report Text: KEOK 252255Z AUTO 00000KT 10SM CLR 22/06 A3002 RMK AO2
Loading
Personal Weather Stations






























Interactive Weather Map
Tropical Storm Tracking
New forecast layout! Learn more

10-Day Weather Forecast

Advertisements
Track Severe Weather on mobile